createdAt,value
2018-12-21T00:02:27.948Z,9.53
2018-12-21T00:04:56.428Z,11.88
2018-12-21T00:07:24.831Z,6.72
2018-12-21T00:09:53.193Z,6.10
2018-12-21T00:12:21.568Z,14.05
2018-12-21T00:14:49.983Z,14.07
2018-12-21T00:17:18.333Z,7.28
2018-12-21T00:19:46.676Z,7.70
2018-12-21T00:22:15.040Z,6.62
2018-12-21T00:24:43.484Z,9.10
2018-12-21T00:27:11.870Z,9.78
2018-12-21T00:29:40.544Z,5.97
2018-12-21T00:32:14.198Z,7.10
2018-12-21T00:34:47.835Z,5.55
2018-12-21T00:37:21.504Z,5.45
2018-12-21T00:39:55.191Z,7.83
2018-12-21T00:42:27.881Z,6.37
2018-12-21T00:45:00.468Z,23.20
2018-12-21T00:47:29.436Z,13.88
2018-12-21T00:49:57.829Z,14.07
2018-12-21T00:52:26.226Z,13.30
2018-12-21T00:54:54.585Z,3.75
2018-12-21T00:57:22.932Z,2.15
2018-12-21T00:59:51.559Z,3.67
2018-12-21T01:02:20.043Z,4.60
2018-12-21T01:04:48.821Z,9.98
2018-12-21T01:07:17.234Z,7.35
2018-12-21T01:09:45.648Z,11.48
2018-12-21T01:12:14.593Z,8.33
2018-12-21T01:14:43.380Z,9.38
2018-12-21T01:17:12.322Z,7.92
2018-12-21T01:19:40.735Z,10.10
2018-12-21T01:22:09.475Z,2.67
2018-12-21T01:24:37.804Z,6.50
2018-12-21T01:27:06.152Z,2.47
2018-12-21T01:29:34.606Z,7.65
2018-12-21T01:32:02.969Z,11.83
2018-12-21T01:34:31.598Z,4.75
2018-12-21T01:36:59.960Z,7.33
2018-12-21T01:39:28.381Z,3.10
2018-12-21T01:41:56.743Z,6.42
2018-12-21T01:44:25.157Z,4.50
2018-12-21T01:46:53.808Z,9.95
2018-12-21T01:49:22.150Z,3.52
2018-12-21T01:51:50.890Z,15.35
2018-12-21T01:54:19.331Z,1.98
2018-12-21T01:56:48.007Z,5.67
2018-12-21T01:59:16.373Z,6.37
2018-12-21T02:01:44.825Z,4.15
2018-12-21T02:04:13.195Z,7.08
2018-12-21T02:06:41.566Z,7.85
2018-12-21T02:09:09.914Z,5.33
2018-12-21T02:11:38.263Z,9.18
2018-12-21T02:14:06.623Z,14.70
2018-12-21T02:16:35.174Z,5.35
2018-12-21T02:19:03.786Z,11.80
2018-12-21T02:21:32.143Z,9.13
2018-12-21T02:24:00.725Z,1.82
2018-12-21T02:26:29.125Z,5.90
2018-12-21T02:28:57.508Z,2.87
2018-12-21T02:31:25.920Z,3.20
2018-12-21T02:33:54.529Z,7.87
2018-12-21T02:36:22.972Z,3.70
2018-12-21T02:38:51.312Z,1.40
2018-12-21T02:41:19.636Z,2.40
2018-12-21T02:43:48.012Z,3.20
2018-12-21T02:46:16.351Z,7.47
2018-12-21T02:48:44.702Z,2.83
2018-12-21T02:51:13.095Z,12.80
2018-12-21T02:53:41.465Z,0.40
2018-12-21T02:56:10.012Z,1.32
2018-12-21T02:58:38.381Z,1.05
2018-12-21T03:01:07.035Z,2.27
2018-12-21T03:03:35.504Z,2.27
2018-12-21T03:06:04.138Z,1.25
2018-12-21T03:08:32.495Z,3.80
2018-12-21T03:11:00.844Z,1.60
2018-12-21T03:13:29.217Z,5.08
2018-12-21T03:15:57.579Z,0.70
2018-12-21T03:18:25.943Z,1.72
2018-12-21T03:20:54.436Z,3.35
2018-12-21T03:23:22.770Z,2.15
2018-12-21T03:25:51.171Z,1.27
2018-12-21T03:28:19.764Z,3.70
2018-12-21T03:30:48.115Z,1.40
2018-12-21T03:33:16.680Z,1.20
2018-12-21T03:35:45.172Z,2.00
2018-12-21T03:38:13.688Z,6.47
2018-12-21T03:40:42.048Z,2.85
2018-12-21T03:43:10.646Z,1.60
2018-12-21T03:45:39.008Z,10.90
2018-12-21T03:48:07.355Z,2.10
2018-12-21T03:50:35.948Z,6.15
2018-12-21T03:53:04.565Z,5.65
2018-12-21T03:55:32.934Z,1.77
2018-12-21T03:58:01.301Z,1.30
2018-12-21T04:00:29.649Z,1.15
2018-12-21T04:02:57.989Z,0.82
2018-12-21T04:05:26.346Z,2.27
2018-12-21T04:07:55.084Z,3.40
2018-12-21T04:10:23.498Z,0.60
2018-12-21T04:12:51.872Z,2.55
2018-12-21T04:15:20.238Z,3.35
2018-12-21T04:17:48.944Z,1.12
2018-12-21T04:20:17.414Z,1.37
2018-12-21T04:22:45.870Z,0.37
2018-12-21T04:25:14.216Z,3.02
2018-12-21T04:27:42.698Z,0.53
2018-12-21T04:30:11.416Z,0.72
2018-12-21T04:32:39.847Z,5.85
2018-12-21T04:35:08.444Z,1.62
2018-12-21T04:37:36.779Z,1.37
2018-12-21T04:40:05.656Z,0.95
2018-12-21T04:42:34.014Z,0.93
2018-12-21T04:45:02.473Z,1.98
2018-12-21T04:47:30.815Z,0.60
2018-12-21T04:49:59.186Z,0.70
2018-12-21T04:52:28.129Z,3.52
2018-12-21T04:54:56.489Z,1.27
2018-12-21T04:57:24.874Z,1.10
2018-12-21T04:59:53.214Z,0.30
2018-12-21T05:02:21.572Z,0.25
2018-12-21T05:04:49.961Z,0.33
2018-12-21T05:07:18.336Z,0.20
2018-12-21T05:09:46.677Z,0.50
2018-12-21T05:12:15.178Z,0.30
2018-12-21T05:14:43.849Z,0.20
2018-12-21T05:17:12.213Z,0.20
2018-12-21T05:19:40.602Z,0.72
2018-12-21T05:22:08.999Z,1.65
2018-12-21T05:24:37.464Z,1.05
2018-12-21T05:27:05.864Z,2.35
2018-12-21T05:29:34.222Z,0.50
2018-12-21T05:32:02.581Z,0.45
2018-12-21T05:34:30.955Z,1.40
2018-12-21T05:36:59.326Z,3.02
2018-12-21T05:39:27.667Z,0.30
2018-12-21T05:41:56.060Z,1.85
2018-12-21T05:44:24.412Z,1.25
2018-12-21T05:46:52.765Z,0.20
2018-12-21T05:49:21.218Z,0.30
2018-12-21T05:51:49.571Z,0.20
2018-12-21T05:54:18.134Z,0.40
2018-12-21T05:56:46.511Z,2.47
2018-12-21T05:59:14.890Z,0.80
2018-12-21T06:01:43.461Z,0.23
2018-12-21T06:04:11.846Z,1.05
2018-12-21T06:06:40.220Z,0.40
2018-12-21T06:09:09.200Z,1.32
2018-12-21T06:11:37.560Z,0.20
2018-12-21T06:14:05.902Z,0.20
2018-12-21T06:16:34.253Z,1.15
2018-12-21T06:19:02.663Z,0.35
2018-12-21T06:21:31.014Z,1.87
2018-12-21T06:23:59.439Z,1.32
2018-12-21T06:26:27.821Z,0.75
2018-12-21T06:28:57.100Z,0.35
2018-12-21T06:31:25.458Z,1.20
2018-12-21T06:33:53.868Z,0.30
2018-12-21T06:36:22.563Z,1.95
2018-12-21T06:38:50.936Z,0.20
2018-12-21T06:41:19.667Z,0.30
2018-12-21T06:43:48.039Z,0.20
2018-12-21T06:46:16.447Z,1.10
2018-12-21T06:48:45.063Z,0.85
2018-12-21T06:51:13.430Z,0.25
2018-12-21T06:53:41.895Z,0.40
2018-12-21T06:56:10.274Z,0.40
2018-12-21T06:58:38.880Z,0.30
2018-12-21T07:01:07.260Z,0.33
2018-12-21T07:03:35.690Z,0.30
2018-12-21T07:06:04.100Z,0.55
2018-12-21T07:08:32.619Z,0.40
2018-12-21T07:11:01.402Z,2.35
2018-12-21T07:13:29.781Z,0.20
2018-12-21T07:15:58.148Z,3.52
2018-12-21T07:18:26.547Z,0.30
2018-12-21T07:20:54.898Z,1.35
2018-12-21T07:23:27.355Z,0.30
2018-12-21T07:25:53.717Z,0.30
2018-12-21T07:28:22.080Z,0.33
2018-12-21T07:30:50.642Z,0.33
2018-12-21T07:33:19.015Z,0.30
2018-12-21T07:35:47.379Z,0.30
2018-12-21T07:38:16.319Z,0.37
2018-12-21T07:40:44.728Z,0.40
2018-12-21T07:43:13.089Z,0.60
2018-12-21T07:45:41.622Z,0.82
2018-12-21T07:48:10.005Z,0.40
2018-12-21T07:50:38.363Z,0.40
2018-12-21T07:53:06.966Z,0.62
2018-12-21T07:55:35.386Z,0.88
2018-12-21T07:58:03.719Z,2.42
2018-12-21T08:00:32.078Z,0.23
2018-12-21T08:03:00.480Z,2.08
2018-12-21T08:05:28.818Z,7.35
2018-12-21T08:07:57.162Z,4.22
2018-12-21T08:10:25.528Z,1.42
2018-12-21T08:12:53.909Z,0.53
2018-12-21T08:15:22.251Z,0.30
2018-12-21T08:17:50.727Z,0.40
2018-12-21T08:20:19.098Z,5.75
2018-12-21T08:22:48.129Z,0.65
2018-12-21T08:25:16.506Z,0.30
2018-12-21T08:27:45.184Z,0.40
2018-12-21T08:30:13.553Z,0.30
2018-12-21T08:32:41.947Z,2.27
2018-12-21T08:35:10.613Z,0.30
2018-12-21T08:37:39.519Z,7.65
2018-12-21T08:40:09.275Z,1.00
2018-12-21T08:42:37.669Z,0.85
2018-12-21T08:45:08.741Z,0.20
2018-12-21T08:47:37.179Z,3.12
2018-12-21T08:50:08.524Z,0.30
2018-12-21T08:52:36.968Z,0.35
2018-12-21T08:55:05.903Z,1.50
2018-12-21T08:57:34.408Z,4.85
2018-12-21T09:00:02.787Z,0.20
2018-12-21T09:02:31.437Z,0.35
2018-12-21T09:05:00.378Z,0.80
2018-12-21T09:07:28.723Z,0.50
2018-12-21T09:09:57.220Z,0.50
2018-12-21T09:12:25.572Z,0.40
2018-12-21T09:14:53.933Z,2.70
2018-12-21T09:17:22.329Z,0.30
2018-12-21T09:19:50.705Z,1.95
2018-12-21T09:22:19.339Z,2.37
2018-12-21T09:24:47.810Z,0.30
2018-12-21T09:27:16.179Z,0.40
2018-12-21T09:29:44.622Z,1.73
2018-12-21T09:32:13.038Z,1.00
2018-12-21T09:34:41.583Z,0.60
2018-12-21T09:37:10.248Z,0.40
2018-12-21T09:39:38.623Z,0.30
2018-12-21T09:42:06.988Z,0.30
2018-12-21T09:44:35.335Z,0.40
2018-12-21T09:47:03.820Z,0.63
2018-12-21T09:49:32.438Z,2.00
2018-12-21T09:52:00.799Z,0.30
2018-12-21T09:54:29.186Z,0.50
2018-12-21T09:56:57.554Z,0.30
2018-12-21T09:59:25.917Z,0.37
2018-12-21T10:01:54.312Z,0.50
2018-12-21T10:04:22.758Z,0.30
2018-12-21T10:06:51.112Z,0.30
2018-12-21T10:09:19.513Z,0.30
2018-12-21T10:11:47.867Z,0.30
2018-12-21T10:14:16.235Z,0.30
2018-12-21T10:16:44.647Z,0.40
2018-12-21T10:19:13.010Z,1.50
2018-12-21T10:21:41.593Z,2.03
2018-12-21T10:24:18.295Z,0.30
2018-12-21T10:26:40.569Z,0.40
2018-12-21T10:29:08.994Z,0.40
2018-12-21T10:31:37.377Z,0.57
2018-12-21T10:34:05.742Z,1.20
2018-12-21T10:36:34.111Z,0.67
2018-12-21T10:39:02.726Z,0.50
2018-12-21T10:41:31.302Z,0.30
2018-12-21T10:43:59.655Z,1.03
2018-12-21T10:46:28.022Z,0.50
2018-12-21T10:48:56.674Z,4.97
2018-12-21T10:51:25.052Z,1.07
2018-12-21T10:53:53.431Z,0.40
2018-12-21T10:56:22.092Z,1.70
2018-12-21T10:58:50.552Z,0.50
2018-12-21T11:01:18.953Z,3.90
2018-12-21T11:03:47.604Z,0.40
2018-12-21T11:06:16.262Z,0.30
2018-12-21T11:08:44.644Z,0.40
2018-12-21T11:11:12.997Z,3.33
2018-12-21T11:13:41.449Z,4.50
2018-12-21T11:16:10.030Z,0.40
2018-12-21T11:18:38.456Z,1.03
2018-12-21T11:21:06.823Z,0.40
2018-12-21T11:23:35.241Z,1.00
2018-12-21T11:26:04.774Z,0.40
2018-12-21T11:28:33.132Z,0.40
2018-12-21T11:31:01.502Z,0.40
2018-12-21T11:33:30.226Z,0.40
2018-12-21T11:35:58.581Z,0.30
2018-12-21T11:38:27.345Z,0.30
2018-12-21T11:40:55.751Z,0.43
2018-12-21T11:43:24.398Z,1.30
2018-12-21T11:45:53.120Z,0.40
2018-12-21T11:48:21.898Z,0.60
2018-12-21T11:50:50.273Z,1.20
2018-12-21T11:53:18.647Z,0.50
2018-12-21T11:55:47.008Z,0.37
2018-12-21T11:58:15.377Z,0.50
2018-12-21T12:00:44.413Z,0.70
2018-12-21T12:03:12.918Z,0.50
2018-12-21T12:05:41.279Z,0.53
2018-12-21T12:08:09.878Z,0.43
2018-12-21T12:10:38.262Z,0.40
2018-12-21T12:13:06.800Z,0.37
2018-12-21T12:15:35.173Z,0.53
2018-12-21T12:18:03.560Z,0.50
2018-12-21T12:20:31.906Z,0.60
2018-12-21T12:23:00.301Z,0.70
2018-12-21T12:25:28.749Z,0.27
2018-12-21T12:27:57.162Z,2.63
2018-12-21T12:30:25.692Z,0.80
2018-12-21T12:32:54.205Z,0.97
2018-12-21T12:35:22.771Z,1.10
2018-12-21T12:37:51.272Z,2.30
2018-12-21T12:40:20.908Z,1.50
2018-12-21T12:42:49.291Z,0.50
2018-12-21T12:45:17.919Z,1.83
2018-12-21T12:47:46.262Z,2.00
2018-12-21T12:50:14.635Z,1.23
2018-12-21T12:52:43.025Z,4.60
2018-12-21T12:55:11.394Z,3.13
2018-12-21T12:57:39.794Z,2.73
2018-12-21T13:00:10.743Z,3.10
2018-12-21T13:02:39.099Z,7.60
2018-12-21T13:05:08.206Z,4.10
2018-12-21T13:07:36.596Z,19.23
2018-12-21T13:10:06.968Z,6.00
2018-12-21T13:12:35.337Z,4.93
2018-12-21T13:15:04.760Z,3.77
2018-12-21T13:17:33.551Z,9.87
2018-12-21T13:20:01.991Z,12.53
2018-12-21T13:22:30.658Z,17.33
2018-12-21T13:24:59.324Z,10.83
2018-12-21T13:27:27.693Z,4.10
2018-12-21T13:29:56.169Z,7.37
2018-12-21T13:32:24.547Z,20.30
2018-12-21T13:34:53.044Z,17.33
2018-12-21T13:37:21.423Z,10.80
2018-12-21T13:39:49.788Z,15.70
2018-12-21T13:42:18.164Z,11.13
2018-12-21T13:44:46.543Z,10.70
2018-12-21T13:47:14.916Z,9.90
2018-12-21T13:49:43.436Z,11.93
2018-12-21T13:52:11.832Z,5.60
2018-12-21T13:54:40.209Z,10.20
2018-12-21T13:57:08.862Z,11.03
2018-12-21T13:59:37.241Z,17.90
2018-12-21T14:02:06.007Z,13.40
2018-12-21T14:04:34.360Z,14.40
2018-12-21T14:07:03.027Z,10.43
2018-12-21T14:09:31.700Z,18.77
2018-12-21T14:12:00.094Z,11.03
2018-12-21T14:14:28.524Z,16.37
2018-12-21T14:16:56.875Z,18.83
2018-12-21T14:19:25.226Z,22.67
2018-12-21T14:21:53.641Z,21.60
2018-12-21T14:24:22.801Z,20.77
2018-12-21T14:26:51.173Z,17.77
2018-12-21T14:29:19.710Z,21.13
2018-12-21T14:31:48.360Z,24.53
2018-12-21T14:34:17.015Z,16.30
2018-12-21T14:36:45.421Z,29.20
2018-12-21T14:39:13.788Z,25.40
2018-12-21T14:41:42.157Z,23.33
2018-12-21T14:44:10.598Z,28.80
2018-12-21T14:46:39.219Z,24.60
2018-12-21T14:49:07.575Z,21.27
2018-12-21T14:51:35.971Z,23.10
2018-12-21T14:54:04.674Z,41.90
2018-12-21T14:56:33.075Z,20.17
2018-12-21T14:59:01.551Z,30.97
2018-12-21T15:01:30.174Z,24.17
2018-12-21T15:03:58.589Z,31.30
2018-12-21T15:06:27.204Z,33.77
2018-12-21T15:08:55.655Z,26.40
2018-12-21T15:11:24.231Z,25.23
2018-12-21T15:13:52.632Z,28.90
2018-12-21T15:16:20.997Z,35.20
2018-12-21T15:18:49.355Z,33.40
2018-12-21T15:21:17.836Z,34.30
2018-12-21T15:23:46.197Z,35.98
2018-12-21T15:26:15.059Z,42.40
2018-12-21T15:28:43.463Z,28.32
2018-12-21T15:31:11.838Z,31.17
2018-12-21T15:33:40.215Z,32.73
2018-12-21T15:36:08.745Z,16.10
2018-12-21T15:38:37.174Z,28.33
2018-12-21T15:41:05.534Z,33.37
2018-12-21T15:43:34.141Z,19.13
2018-12-21T15:46:02.565Z,24.77
2018-12-21T15:48:30.983Z,30.73
2018-12-21T15:50:59.376Z,28.63
2018-12-21T15:53:27.738Z,26.60
2018-12-21T15:55:56.089Z,29.23
2018-12-21T15:58:24.495Z,21.43
2018-12-21T16:00:52.989Z,43.83
2018-12-21T16:03:21.407Z,68.60
2018-12-21T16:05:49.999Z,35.77
2018-12-21T16:08:18.574Z,41.07
2018-12-21T16:10:46.941Z,37.97
2018-12-21T16:13:15.323Z,40.93
2018-12-21T16:15:43.686Z,35.60
2018-12-21T16:18:12.061Z,29.40
2018-12-21T16:20:40.439Z,34.20
2018-12-21T16:23:08.808Z,37.20
2018-12-21T16:25:37.278Z,34.35
2018-12-21T16:28:05.927Z,27.80
2018-12-21T16:30:34.311Z,20.90
2018-12-21T16:33:03.401Z,43.87
2018-12-21T16:35:31.889Z,42.33
2018-12-21T16:38:00.260Z,25.00
2018-12-21T16:40:28.647Z,28.83
2018-12-21T16:42:57.137Z,30.47
2018-12-21T16:45:25.500Z,40.13
2018-12-21T16:47:54.182Z,40.03
2018-12-21T16:50:22.616Z,38.67
2018-12-21T16:52:51.226Z,43.93
2018-12-21T16:55:19.899Z,42.85
2018-12-21T16:57:48.298Z,26.87
2018-12-21T17:00:16.971Z,32.60
2018-12-21T17:02:45.358Z,42.03
2018-12-21T17:05:13.751Z,30.48
2018-12-21T17:07:42.397Z,37.75
2018-12-21T17:10:16.087Z,27.27
2018-12-21T17:12:44.508Z,34.60
2018-12-21T17:15:13.117Z,28.23
2018-12-21T17:17:41.512Z,35.95
2018-12-21T17:20:10.344Z,33.50
2018-12-21T17:22:38.734Z,29.73
2018-12-21T17:25:10.123Z,38.33
2018-12-21T17:27:38.500Z,38.17
2018-12-21T17:30:09.007Z,31.23
2018-12-21T17:32:37.673Z,48.38
2018-12-21T17:35:06.902Z,21.30
2018-12-21T17:37:35.581Z,47.07
2018-12-21T17:40:05.630Z,26.47
2018-12-21T17:42:34.000Z,43.70
2018-12-21T17:45:02.871Z,47.80
2018-12-21T17:47:31.335Z,32.27
2018-12-21T17:50:00.281Z,32.40
2018-12-21T17:52:28.707Z,48.73
2018-12-21T17:54:57.393Z,36.33
2018-12-21T17:57:25.789Z,32.80
2018-12-21T17:59:54.461Z,24.53
2018-12-21T18:02:23.177Z,39.57
2018-12-21T18:04:51.799Z,41.83
2018-12-21T18:07:20.510Z,25.73
2018-12-21T18:09:49.203Z,36.10
2018-12-21T18:12:17.560Z,33.00
2018-12-21T18:14:46.061Z,41.03
2018-12-21T18:17:14.582Z,39.00
2018-12-21T18:19:43.073Z,40.40
2018-12-21T18:22:17.154Z,43.80
2018-12-21T18:24:48.304Z,56.43
2018-12-21T18:27:16.687Z,34.83
2018-12-21T18:29:45.425Z,25.80
2018-12-21T18:32:23.598Z,38.70
2018-12-21T18:34:52.011Z,42.97
2018-12-21T18:37:20.385Z,44.05
2018-12-21T18:39:48.769Z,40.40
2018-12-21T18:42:17.188Z,35.83
2018-12-21T18:44:45.798Z,35.88
2018-12-21T18:47:14.188Z,32.70
2018-12-21T18:49:42.733Z,31.25
2018-12-21T18:52:11.105Z,41.63
2018-12-21T18:54:39.935Z,40.98
2018-12-21T18:57:11.466Z,45.38
2018-12-21T18:59:39.827Z,35.58
2018-12-21T19:02:08.223Z,42.75
2018-12-21T19:04:36.888Z,31.52
2018-12-21T19:07:05.273Z,48.00
2018-12-21T19:09:33.650Z,49.73
2018-12-21T19:12:02.423Z,41.58
2018-12-21T19:14:30.804Z,41.85
2018-12-21T19:16:59.604Z,48.38
2018-12-21T19:19:28.037Z,42.17
2018-12-21T19:21:56.410Z,23.87
2018-12-21T19:24:25.159Z,41.28
2018-12-21T19:26:55.882Z,33.10
2018-12-21T19:29:24.086Z,37.70
2018-12-21T19:31:52.451Z,39.50
2018-12-21T19:34:20.850Z,29.07
2018-12-21T19:36:49.447Z,35.33
2018-12-21T19:39:18.150Z,38.63
2018-12-21T19:41:46.571Z,34.23
2018-12-21T19:44:14.954Z,34.83
2018-12-21T19:46:43.308Z,33.50
2018-12-21T19:49:11.998Z,43.25
2018-12-21T19:51:40.816Z,39.25
2018-12-21T19:54:11.572Z,41.65
2018-12-21T19:57:13.243Z,33.18
2018-12-21T19:59:42.068Z,54.20
2018-12-21T20:02:10.705Z,31.90
2018-12-21T20:04:40.024Z,38.90
2018-12-21T20:07:08.456Z,37.98
2018-12-21T20:09:36.827Z,48.25
2018-12-21T20:12:06.125Z,44.83
2018-12-21T20:14:34.799Z,38.70
2018-12-21T20:17:03.179Z,37.95
2018-12-21T20:19:31.606Z,30.82
2018-12-21T20:22:00.063Z,34.13
2018-12-21T20:24:32.267Z,48.30
2018-12-21T20:27:13.867Z,45.05
2018-12-21T20:29:41.539Z,36.38
2018-12-21T20:32:10.112Z,37.83
2018-12-21T20:34:38.502Z,43.90
2018-12-21T20:37:07.309Z,34.45
2018-12-21T20:39:37.850Z,33.95
2018-12-21T20:42:06.374Z,51.58
2018-12-21T20:44:35.031Z,37.75
2018-12-21T20:47:04.792Z,34.53
2018-12-21T20:49:33.402Z,48.25
2018-12-21T20:52:01.867Z,47.60
2018-12-21T20:54:30.285Z,37.30
2018-12-21T20:57:00.596Z,66.47
2018-12-21T20:59:29.570Z,49.03
2018-12-21T21:01:58.163Z,34.70
2018-12-21T21:04:26.610Z,38.20
2018-12-21T21:06:55.045Z,44.33
2018-12-21T21:09:23.427Z,41.83
2018-12-21T21:11:51.825Z,47.90
2018-12-21T21:14:21.782Z,30.90
2018-12-21T21:16:50.179Z,41.00
2018-12-21T21:19:18.581Z,36.10
2018-12-21T21:21:46.953Z,25.00
2018-12-21T21:24:15.571Z,53.92
2018-12-21T21:26:43.956Z,39.23
2018-12-21T21:29:12.359Z,33.63
2018-12-21T21:31:43.707Z,28.00
2018-12-21T21:34:12.115Z,43.13
2018-12-21T21:36:40.471Z,28.55
2018-12-21T21:39:08.962Z,56.90
2018-12-21T21:41:37.597Z,40.20
2018-12-21T21:44:06.623Z,48.17
2018-12-21T21:46:34.998Z,29.27
2018-12-21T21:49:03.448Z,50.03
2018-12-21T21:51:32.339Z,47.15
2018-12-21T21:54:00.779Z,44.03
2018-12-21T21:56:29.168Z,24.02
2018-12-21T21:58:57.538Z,41.02
2018-12-21T22:01:26.173Z,47.03
2018-12-21T22:03:54.578Z,35.48
2018-12-21T22:06:22.959Z,25.57
2018-12-21T22:08:51.646Z,29.95
2018-12-21T22:11:20.052Z,45.35
2018-12-21T22:13:48.658Z,38.13
2018-12-21T22:16:17.031Z,29.80
2018-12-21T22:18:45.457Z,33.50
2018-12-21T22:21:13.813Z,42.03
2018-12-21T22:23:42.197Z,33.80
2018-12-21T22:26:10.580Z,55.65
2018-12-21T22:28:39.217Z,47.20
2018-12-21T22:31:07.631Z,41.00
2018-12-21T22:33:36.077Z,49.03
2018-12-21T22:36:04.696Z,29.63
2018-12-21T22:38:33.045Z,29.98
2018-12-21T22:41:01.434Z,31.37
2018-12-21T22:43:30.132Z,48.95
2018-12-21T22:45:58.504Z,36.95
2018-12-21T22:48:26.928Z,39.58
2018-12-21T22:50:55.291Z,37.33
2018-12-21T22:53:23.988Z,36.45
2018-12-21T22:55:52.660Z,48.85
2018-12-21T22:58:21.049Z,34.83
2018-12-21T23:00:49.424Z,52.00
2018-12-21T23:03:18.123Z,62.50
2018-12-21T23:05:46.498Z,44.25
2018-12-21T23:08:14.856Z,30.52
2018-12-21T23:10:43.285Z,36.95
2018-12-21T23:13:11.658Z,30.60
2018-12-21T23:15:40.139Z,57.70
2018-12-21T23:18:09.002Z,37.50
2018-12-21T23:20:37.372Z,33.28
2018-12-21T23:23:06.058Z,40.50
2018-12-21T23:25:34.459Z,35.13
2018-12-21T23:28:05.345Z,35.08
2018-12-21T23:30:33.355Z,51.33
2018-12-21T23:33:02.063Z,23.38
2018-12-21T23:35:30.442Z,43.50
2018-12-21T23:37:58.814Z,43.95
2018-12-21T23:40:27.237Z,39.15
2018-12-21T23:42:55.610Z,35.75
2018-12-21T23:45:23.988Z,44.35
2018-12-21T23:47:52.393Z,33.88
2018-12-21T23:50:20.977Z,43.42
2018-12-21T23:52:49.341Z,38.33
2018-12-21T23:55:17.730Z,27.17
2018-12-21T23:57:46.117Z,49.73
